sensor_id;sensor_type;location;lat;lon;timestamp;temperature;humidity
21047;DHT22;10682;50.874;3.656;2022-12-29T00:00:20;11.80;99.90
21047;DHT22;10682;50.874;3.656;2022-12-29T00:02:47;11.80;99.90
21047;DHT22;10682;50.874;3.656;2022-12-29T00:05:15;11.80;99.90
21047;DHT22;10682;50.874;3.656;2022-12-29T00:07:42;11.90;99.90
21047;DHT22;10682;50.874;3.656;2022-12-29T00:10:09;11.90;99.90
21047;DHT22;10682;50.874;3.656;2022-12-29T00:12:36;11.90;99.90
21047;DHT22;10682;50.874;3.656;2022-12-29T00:15:21;11.90;99.90
21047;DHT22;10682;50.874;3.656;2022-12-29T00:18:04;11.90;99.90
21047;DHT22;10682;50.874;3.656;2022-12-29T00:20:36;11.90;99.90
21047;DHT22;10682;50.874;3.656;2022-12-29T00:23:22;11.90;99.90
21047;DHT22;10682;50.874;3.656;2022-12-29T00:26:15;11.90;99.90
21047;DHT22;10682;50.874;3.656;2022-12-29T00:29:02;11.90;99.90
21047;DHT22;10682;50.874;3.656;2022-12-29T00:31:47;11.80;99.90
21047;DHT22;10682;50.874;3.656;2022-12-29T00:34:33;11.90;99.90
21047;DHT22;10682;50.874;3.656;2022-12-29T00:37:19;11.80;99.90
21047;DHT22;10682;50.874;3.656;2022-12-29T00:40:06;11.90;99.90
21047;DHT22;10682;50.874;3.656;2022-12-29T00:42:52;11.90;99.90
21047;DHT22;10682;50.874;3.656;2022-12-29T00:45:40;11.90;99.90
21047;DHT22;10682;50.874;3.656;2022-12-29T00:48:08;12.00;99.90
21047;DHT22;10682;50.874;3.656;2022-12-29T00:50:35;12.00;99.90
21047;DHT22;10682;50.874;3.656;2022-12-29T00:53:02;12.00;99.90
21047;DHT22;10682;50.874;3.656;2022-12-29T00:55:29;12.00;99.90
21047;DHT22;10682;50.874;3.656;2022-12-29T00:57:57;12.10;99.90
21047;DHT22;10682;50.874;3.656;2022-12-29T01:00:24;12.00;99.90
21047;DHT22;10682;50.874;3.656;2022-12-29T01:02:52;12.00;99.90
21047;DHT22;10682;50.874;3.656;2022-12-29T01:05:19;12.00;99.90
21047;DHT22;10682;50.874;3.656;2022-12-29T01:07:46;12.00;99.90
21047;DHT22;10682;50.874;3.656;2022-12-29T01:10:13;12.00;99.90
21047;DHT22;10682;50.874;3.656;2022-12-29T01:12:41;12.00;99.90
21047;DHT22;10682;50.874;3.656;2022-12-29T01:15:10;12.00;99.90
21047;DHT22;10682;50.874;3.656;2022-12-29T01:17:39;12.00;99.90
21047;DHT22;10682;50.874;3.656;2022-12-29T01:20:06;12.00;99.90
21047;DHT22;10682;50.874;3.656;2022-12-29T01:22:34;11.90;99.90
21047;DHT22;10682;50.874;3.656;2022-12-29T01:25:01;11.90;99.90
21047;DHT22;10682;50.874;3.656;2022-12-29T01:27:29;11.80;99.90
21047;DHT22;10682;50.874;3.656;2022-12-29T01:29:56;11.80;99.90
21047;DHT22;10682;50.874;3.656;2022-12-29T01:32:23;11.70;99.90
21047;DHT22;10682;50.874;3.656;2022-12-29T01:34:50;11.70;99.90
21047;DHT22;10682;50.874;3.656;2022-12-29T01:37:17;11.60;99.90
21047;DHT22;10682;50.874;3.656;2022-12-29T01:39:44;11.60;99.90
21047;DHT22;10682;50.874;3.656;2022-12-29T01:42:17;11.60;99.90
21047;DHT22;10682;50.874;3.656;2022-12-29T01:44:55;11.60;99.90
21047;DHT22;10682;50.874;3.656;2022-12-29T01:47:43;11.60;99.90
21047;DHT22;10682;50.874;3.656;2022-12-29T01:53:02;11.50;99.90
21047;DHT22;10682;50.874;3.656;2022-12-29T01:55:39;11.50;99.90
21047;DHT22;10682;50.874;3.656;2022-12-29T01:58:08;11.50;99.90
21047;DHT22;10682;50.874;3.656;2022-12-29T02:00:37;11.50;99.90
21047;DHT22;10682;50.874;3.656;2022-12-29T02:03:05;11.50;99.90
21047;DHT22;10682;50.874;3.656;2022-12-29T02:06:37;11.50;99.90
21047;DHT22;10682;50.874;3.656;2022-12-29T02:08:53;11.50;99.90
21047;DHT22;10682;50.874;3.656;2022-12-29T02:11:23;11.50;99.90
21047;DHT22;10682;50.874;3.656;2022-12-29T02:13:53;11.60;99.90
21047;DHT22;10682;50.874;3.656;2022-12-29T02:20:11;11.50;99.90
21047;DHT22;10682;50.874;3.656;2022-12-29T02:28:48;11.40;99.90
21047;DHT22;10682;50.874;3.656;2022-12-29T02:31:49;11.40;99.90
21047;DHT22;10682;50.874;3.656;2022-12-29T02:34:47;11.30;99.90
21047;DHT22;10682;50.874;3.656;2022-12-29T02:37:24;11.30;99.90
21047;DHT22;10682;50.874;3.656;2022-12-29T02:48:37;11.20;99.90
21047;DHT22;10682;50.874;3.656;2022-12-29T02:53:46;11.10;99.90
21047;DHT22;10682;50.874;3.656;2022-12-29T02:56:33;11.00;99.90
21047;DHT22;10682;50.874;3.656;2022-12-29T02:59:00;11.10;99.90
21047;DHT22;10682;50.874;3.656;2022-12-29T03:04:52;11.00;99.90
21047;DHT22;10682;50.874;3.656;2022-12-29T03:11:06;10.90;99.90
21047;DHT22;10682;50.874;3.656;2022-12-29T03:14:12;10.80;99.90
21047;DHT22;10682;50.874;3.656;2022-12-29T03:17:11;10.80;99.90
21047;DHT22;10682;50.874;3.656;2022-12-29T03:19:48;10.80;99.90
21047;DHT22;10682;50.874;3.656;2022-12-29T03:22:21;10.80;99.90
21047;DHT22;10682;50.874;3.656;2022-12-29T03:25:29;10.80;99.90
21047;DHT22;10682;50.874;3.656;2022-12-29T03:28:24;10.70;99.90
21047;DHT22;10682;50.874;3.656;2022-12-29T03:30:55;10.70;99.90
21047;DHT22;10682;50.874;3.656;2022-12-29T03:33:27;10.70;99.90
21047;DHT22;10682;50.874;3.656;2022-12-29T03:36:01;10.70;99.90
21047;DHT22;10682;50.874;3.656;2022-12-29T03:41:41;10.70;99.90
21047;DHT22;10682;50.874;3.656;2022-12-29T03:44:12;10.70;99.90
21047;DHT22;10682;50.874;3.656;2022-12-29T03:46:39;10.60;99.90
21047;DHT22;10682;50.874;3.656;2022-12-29T03:49:07;10.60;99.90
21047;DHT22;10682;50.874;3.656;2022-12-29T03:51:34;10.70;99.90
21047;DHT22;10682;50.874;3.656;2022-12-29T03:54:02;10.60;99.90
21047;DHT22;10682;50.874;3.656;2022-12-29T03:56:29;10.60;99.90
21047;DHT22;10682;50.874;3.656;2022-12-29T03:58:56;10.60;99.90
21047;DHT22;10682;50.874;3.656;2022-12-29T04:01:23;10.50;99.90
21047;DHT22;10682;50.874;3.656;2022-12-29T04:03:50;10.50;99.90
21047;DHT22;10682;50.874;3.656;2022-12-29T04:06:17;10.50;99.90
21047;DHT22;10682;50.874;3.656;2022-12-29T04:08:44;10.50;99.90
21047;DHT22;10682;50.874;3.656;2022-12-29T04:11:11;10.60;99.90
21047;DHT22;10682;50.874;3.656;2022-12-29T04:13:38;10.70;99.90
21047;DHT22;10682;50.874;3.656;2022-12-29T04:16:07;10.80;99.90
21047;DHT22;10682;50.874;3.656;2022-12-29T04:18:35;10.80;99.90
21047;DHT22;10682;50.874;3.656;2022-12-29T04:21:02;10.80;99.90
21047;DHT22;10682;50.874;3.656;2022-12-29T04:23:32;10.80;99.90
21047;DHT22;10682;50.874;3.656;2022-12-29T04:26:01;10.90;99.90
21047;DHT22;10682;50.874;3.656;2022-12-29T04:28:29;10.90;99.90
21047;DHT22;10682;50.874;3.656;2022-12-29T04:30:57;10.90;99.90
21047;DHT22;10682;50.874;3.656;2022-12-29T04:33:24;10.90;99.90
21047;DHT22;10682;50.874;3.656;2022-12-29T04:35:51;10.90;99.90
21047;DHT22;10682;50.874;3.656;2022-12-29T04:38:21;10.90;99.90
21047;DHT22;10682;50.874;3.656;2022-12-29T04:40:49;10.90;99.90
21047;DHT22;10682;50.874;3.656;2022-12-29T04:43:17;10.80;99.90
21047;DHT22;10682;50.874;3.656;2022-12-29T04:45:46;10.90;99.90
21047;DHT22;10682;50.874;3.656;2022-12-29T04:48:14;10.80;99.90
21047;DHT22;10682;50.874;3.656;2022-12-29T04:50:41;10.80;99.90
21047;DHT22;10682;50.874;3.656;2022-12-29T04:53:08;10.70;99.90
21047;DHT22;10682;50.874;3.656;2022-12-29T04:55:35;10.70;99.90
21047;DHT22;10682;50.874;3.656;2022-12-29T04:58:03;10.70;99.90
21047;DHT22;10682;50.874;3.656;2022-12-29T05:00:30;10.70;99.90
21047;DHT22;10682;50.874;3.656;2022-12-29T05:02:57;10.70;99.90
21047;DHT22;10682;50.874;3.656;2022-12-29T05:05:24;10.80;99.90
21047;DHT22;10682;50.874;3.656;2022-12-29T05:07:51;10.80;99.90
21047;DHT22;10682;50.874;3.656;2022-12-29T05:10:18;10.80;99.90
21047;DHT22;10682;50.874;3.656;2022-12-29T05:12:45;10.80;99.90
21047;DHT22;10682;50.874;3.656;2022-12-29T05:15:13;10.80;99.90
21047;DHT22;10682;50.874;3.656;2022-12-29T05:17:40;10.80;99.90
21047;DHT22;10682;50.874;3.656;2022-12-29T05:20:09;10.80;99.90
21047;DHT22;10682;50.874;3.656;2022-12-29T05:22:37;10.80;99.90
21047;DHT22;10682;50.874;3.656;2022-12-29T05:25:04;10.80;99.90
21047;DHT22;10682;50.874;3.656;2022-12-29T05:27:31;10.80;99.90
21047;DHT22;10682;50.874;3.656;2022-12-29T05:29:59;10.80;99.90
21047;DHT22;10682;50.874;3.656;2022-12-29T05:32:26;10.90;99.90
21047;DHT22;10682;50.874;3.656;2022-12-29T05:34:53;10.90;99.90
21047;DHT22;10682;50.874;3.656;2022-12-29T05:37:20;10.90;99.90
21047;DHT22;10682;50.874;3.656;2022-12-29T05:39:47;10.90;99.90
21047;DHT22;10682;50.874;3.656;2022-12-29T05:42:16;10.90;99.90
21047;DHT22;10682;50.874;3.656;2022-12-29T05:44:43;10.90;99.90
21047;DHT22;10682;50.874;3.656;2022-12-29T05:47:10;10.90;99.90
21047;DHT22;10682;50.874;3.656;2022-12-29T05:49:38;10.90;99.90
21047;DHT22;10682;50.874;3.656;2022-12-29T05:52:05;10.90;99.90
21047;DHT22;10682;50.874;3.656;2022-12-29T05:54:31;10.90;99.90
21047;DHT22;10682;50.874;3.656;2022-12-29T05:56:58;10.80;99.90
21047;DHT22;10682;50.874;3.656;2022-12-29T05:59:32;10.80;99.90
21047;DHT22;10682;50.874;3.656;2022-12-29T06:01:59;10.80;99.90
21047;DHT22;10682;50.874;3.656;2022-12-29T06:04:26;10.90;99.90
21047;DHT22;10682;50.874;3.656;2022-12-29T06:06:53;10.80;99.90
21047;DHT22;10682;50.874;3.656;2022-12-29T06:09:20;10.90;99.90
21047;DHT22;10682;50.874;3.656;2022-12-29T06:11:47;10.90;99.90
21047;DHT22;10682;50.874;3.656;2022-12-29T06:14:14;10.80;99.90
21047;DHT22;10682;50.874;3.656;2022-12-29T06:16:41;10.90;99.90
21047;DHT22;10682;50.874;3.656;2022-12-29T06:19:08;10.90;99.90
21047;DHT22;10682;50.874;3.656;2022-12-29T06:21:35;10.90;99.90
21047;DHT22;10682;50.874;3.656;2022-12-29T06:24:04;10.90;99.90
21047;DHT22;10682;50.874;3.656;2022-12-29T06:26:31;10.80;99.90
21047;DHT22;10682;50.874;3.656;2022-12-29T06:28:58;10.80;99.90
21047;DHT22;10682;50.874;3.656;2022-12-29T06:31:26;10.80;99.90
21047;DHT22;10682;50.874;3.656;2022-12-29T06:33:53;10.80;99.90
21047;DHT22;10682;50.874;3.656;2022-12-29T06:36:20;10.90;99.90
21047;DHT22;10682;50.874;3.656;2022-12-29T06:38:46;10.80;99.90
21047;DHT22;10682;50.874;3.656;2022-12-29T06:41:13;10.90;99.90
21047;DHT22;10682;50.874;3.656;2022-12-29T06:43:40;10.80;99.90
21047;DHT22;10682;50.874;3.656;2022-12-29T06:46:07;10.90;99.90
21047;DHT22;10682;50.874;3.656;2022-12-29T06:48:35;10.80;99.90
21047;DHT22;10682;50.874;3.656;2022-12-29T06:51:02;10.90;99.90
21047;DHT22;10682;50.874;3.656;2022-12-29T06:53:29;10.80;99.90
21047;DHT22;10682;50.874;3.656;2022-12-29T06:55:56;10.80;99.90
21047;DHT22;10682;50.874;3.656;2022-12-29T06:58:23;10.90;99.90
21047;DHT22;10682;50.874;3.656;2022-12-29T07:00:50;10.80;99.90
21047;DHT22;10682;50.874;3.656;2022-12-29T07:03:17;10.80;99.90
21047;DHT22;10682;50.874;3.656;2022-12-29T07:05:44;10.80;99.90
21047;DHT22;10682;50.874;3.656;2022-12-29T07:08:11;10.90;99.90
21047;DHT22;10682;50.874;3.656;2022-12-29T07:10:38;10.80;99.90
21047;DHT22;10682;50.874;3.656;2022-12-29T07:13:05;10.80;99.90
21047;DHT22;10682;50.874;3.656;2022-12-29T07:15:35;10.80;99.90
21047;DHT22;10682;50.874;3.656;2022-12-29T07:18:03;10.90;99.90
21047;DHT22;10682;50.874;3.656;2022-12-29T07:20:31;10.80;99.90
21047;DHT22;10682;50.874;3.656;2022-12-29T07:22:58;10.90;99.90
21047;DHT22;10682;50.874;3.656;2022-12-29T07:25:25;10.90;99.90
21047;DHT22;10682;50.874;3.656;2022-12-29T07:27:52;10.90;99.90
21047;DHT22;10682;50.874;3.656;2022-12-29T07:30:20;10.80;99.90
21047;DHT22;10682;50.874;3.656;2022-12-29T07:32:47;10.80;99.90
21047;DHT22;10682;50.874;3.656;2022-12-29T07:35:14;10.80;99.90
21047;DHT22;10682;50.874;3.656;2022-12-29T07:37:45;10.90;99.90
21047;DHT22;10682;50.874;3.656;2022-12-29T07:40:12;10.80;99.90
21047;DHT22;10682;50.874;3.656;2022-12-29T07:42:42;10.90;99.90
21047;DHT22;10682;50.874;3.656;2022-12-29T07:45:10;10.90;99.90
21047;DHT22;10682;50.874;3.656;2022-12-29T07:47:37;10.90;99.90
21047;DHT22;10682;50.874;3.656;2022-12-29T07:50:04;10.90;99.90
21047;DHT22;10682;50.874;3.656;2022-12-29T07:52:32;10.90;99.90
21047;DHT22;10682;50.874;3.656;2022-12-29T07:54:59;10.90;99.90
21047;DHT22;10682;50.874;3.656;2022-12-29T07:57:26;10.90;99.90
21047;DHT22;10682;50.874;3.656;2022-12-29T07:59:58;10.90;99.90
21047;DHT22;10682;50.874;3.656;2022-12-29T08:02:25;10.90;99.90
21047;DHT22;10682;50.874;3.656;2022-12-29T08:04:53;10.90;99.90
21047;DHT22;10682;50.874;3.656;2022-12-29T08:07:20;10.90;99.90
21047;DHT22;10682;50.874;3.656;2022-12-29T08:09:47;10.80;99.90
21047;DHT22;10682;50.874;3.656;2022-12-29T08:12:16;10.80;99.90
21047;DHT22;10682;50.874;3.656;2022-12-29T08:14:43;10.80;99.90
21047;DHT22;10682;50.874;3.656;2022-12-29T08:17:10;10.80;99.90
21047;DHT22;10682;50.874;3.656;2022-12-29T08:19:37;10.80;99.90
21047;DHT22;10682;50.874;3.656;2022-12-29T08:22:04;10.80;99.90
21047;DHT22;10682;50.874;3.656;2022-12-29T08:24:31;10.70;99.90
21047;DHT22;10682;50.874;3.656;2022-12-29T08:26:58;10.60;99.90
21047;DHT22;10682;50.874;3.656;2022-12-29T08:29:37;10.60;99.90
21047;DHT22;10682;50.874;3.656;2022-12-29T08:32:04;10.50;99.90
21047;DHT22;10682;50.874;3.656;2022-12-29T08:34:32;10.40;99.90
21047;DHT22;10682;50.874;3.656;2022-12-29T08:36:59;10.40;99.90
21047;DHT22;10682;50.874;3.656;2022-12-29T08:39:27;10.30;99.90
21047;DHT22;10682;50.874;3.656;2022-12-29T08:41:54;10.20;99.90
21047;DHT22;10682;50.874;3.656;2022-12-29T08:44:21;10.00;99.90
21047;DHT22;10682;50.874;3.656;2022-12-29T08:46:48;10.00;99.90
21047;DHT22;10682;50.874;3.656;2022-12-29T08:49:15;9.90;99.90
21047;DHT22;10682;50.874;3.656;2022-12-29T08:51:42;9.80;99.90
21047;DHT22;10682;50.874;3.656;2022-12-29T08:54:09;9.80;99.90
21047;DHT22;10682;50.874;3.656;2022-12-29T08:56:36;9.80;99.90
21047;DHT22;10682;50.874;3.656;2022-12-29T08:59:03;9.80;99.90
21047;DHT22;10682;50.874;3.656;2022-12-29T09:01:30;9.90;99.90
21047;DHT22;10682;50.874;3.656;2022-12-29T09:03:58;9.80;99.90
21047;DHT22;10682;50.874;3.656;2022-12-29T09:06:44;9.80;99.90
21047;DHT22;10682;50.874;3.656;2022-12-29T09:09:12;9.70;99.90
21047;DHT22;10682;50.874;3.656;2022-12-29T09:11:39;9.70;99.90
21047;DHT22;10682;50.874;3.656;2022-12-29T09:14:06;9.70;99.90
21047;DHT22;10682;50.874;3.656;2022-12-29T09:16:34;9.70;99.90
21047;DHT22;10682;50.874;3.656;2022-12-29T09:19:02;9.70;99.90
21047;DHT22;10682;50.874;3.656;2022-12-29T09:21:29;9.70;99.90
21047;DHT22;10682;50.874;3.656;2022-12-29T09:23:57;9.70;99.90
21047;DHT22;10682;50.874;3.656;2022-12-29T09:26:24;9.70;99.90
21047;DHT22;10682;50.874;3.656;2022-12-29T09:28:50;9.80;99.90
21047;DHT22;10682;50.874;3.656;2022-12-29T09:31:17;9.90;99.90
21047;DHT22;10682;50.874;3.656;2022-12-29T09:33:44;9.90;99.90
21047;DHT22;10682;50.874;3.656;2022-12-29T09:36:11;10.00;99.90
21047;DHT22;10682;50.874;3.656;2022-12-29T09:38:38;10.00;99.90
21047;DHT22;10682;50.874;3.656;2022-12-29T09:41:23;10.10;99.90
21047;DHT22;10682;50.874;3.656;2022-12-29T09:46:50;10.10;99.90
21047;DHT22;10682;50.874;3.656;2022-12-29T09:49:33;10.10;99.90
21047;DHT22;10682;50.874;3.656;2022-12-29T09:52:30;10.10;99.90
21047;DHT22;10682;50.874;3.656;2022-12-29T09:55:14;10.30;99.90
21047;DHT22;10682;50.874;3.656;2022-12-29T09:58:00;10.30;99.90
21047;DHT22;10682;50.874;3.656;2022-12-29T10:00:52;10.20;99.90
21047;DHT22;10682;50.874;3.656;2022-12-29T10:03:26;10.20;99.90
21047;DHT22;10682;50.874;3.656;2022-12-29T10:09:53;10.30;99.90
21047;DHT22;10682;50.874;3.656;2022-12-29T10:12:51;10.40;99.90
21047;DHT22;10682;50.874;3.656;2022-12-29T10:18:24;10.50;99.90
21047;DHT22;10682;50.874;3.656;2022-12-29T10:24:09;10.60;99.90
21047;DHT22;10682;50.874;3.656;2022-12-29T10:26:43;10.60;99.90
21047;DHT22;10682;50.874;3.656;2022-12-29T10:29:20;10.60;99.90
21047;DHT22;10682;50.874;3.656;2022-12-29T10:32:29;10.70;99.90
21047;DHT22;10682;50.874;3.656;2022-12-29T10:35:14;10.70;99.90
21047;DHT22;10682;50.874;3.656;2022-12-29T10:38:00;10.80;99.90
21047;DHT22;10682;50.874;3.656;2022-12-29T10:40:40;10.70;99.90
21047;DHT22;10682;50.874;3.656;2022-12-29T10:45:54;10.80;99.90
21047;DHT22;10682;50.874;3.656;2022-12-29T10:48:32;10.80;99.90
21047;DHT22;10682;50.874;3.656;2022-12-29T10:51:08;10.90;99.90
21047;DHT22;10682;50.874;3.656;2022-12-29T10:53:55;10.80;99.90
21047;DHT22;10682;50.874;3.656;2022-12-29T10:56:34;10.90;99.90
21047;DHT22;10682;50.874;3.656;2022-12-29T10:59:21;11.00;99.90
21047;DHT22;10682;50.874;3.656;2022-12-29T11:05:00;11.00;99.90
21047;DHT22;10682;50.874;3.656;2022-12-29T11:07:31;11.00;99.90
21047;DHT22;10682;50.874;3.656;2022-12-29T11:10:19;10.90;99.90
21047;DHT22;10682;50.874;3.656;2022-12-29T11:13:16;10.90;99.90
21047;DHT22;10682;50.874;3.656;2022-12-29T11:15:49;10.90;99.90
21047;DHT22;10682;50.874;3.656;2022-12-29T11:18:31;10.90;99.90
21047;DHT22;10682;50.874;3.656;2022-12-29T11:21:29;10.90;99.90
21047;DHT22;10682;50.874;3.656;2022-12-29T11:24:03;10.90;99.90
21047;DHT22;10682;50.874;3.656;2022-12-29T11:26:33;10.90;99.90
21047;DHT22;10682;50.874;3.656;2022-12-29T11:31:49;10.90;99.90
21047;DHT22;10682;50.874;3.656;2022-12-29T11:34:33;11.00;99.90
21047;DHT22;10682;50.874;3.656;2022-12-29T11:37:59;11.10;99.90
21047;DHT22;10682;50.874;3.656;2022-12-29T11:40:21;11.40;99.90
21047;DHT22;10682;50.874;3.656;2022-12-29T11:42:51;11.50;99.90
21047;DHT22;10682;50.874;3.656;2022-12-29T11:45:23;11.50;99.90
21047;DHT22;10682;50.874;3.656;2022-12-29T11:50:28;11.40;99.90
21047;DHT22;10682;50.874;3.656;2022-12-29T11:52:59;11.30;99.90
21047;DHT22;10682;50.874;3.656;2022-12-29T11:55:29;11.20;99.90
21047;DHT22;10682;50.874;3.656;2022-12-29T11:58:00;11.20;99.90
21047;DHT22;10682;50.874;3.656;2022-12-29T12:00:32;11.10;99.90
21047;DHT22;10682;50.874;3.656;2022-12-29T12:05:48;11.00;99.90
21047;DHT22;10682;50.874;3.656;2022-12-29T12:08:39;11.00;99.90
21047;DHT22;10682;50.874;3.656;2022-12-29T12:11:37;11.00;99.90
21047;DHT22;10682;50.874;3.656;2022-12-29T12:17:04;10.90;99.90
21047;DHT22;10682;50.874;3.656;2022-12-29T12:22:16;10.80;99.90
21047;DHT22;10682;50.874;3.656;2022-12-29T12:24:52;10.70;99.90
21047;DHT22;10682;50.874;3.656;2022-12-29T12:30:14;10.80;99.90
21047;DHT22;10682;50.874;3.656;2022-12-29T12:33:06;10.90;99.90
21047;DHT22;10682;50.874;3.656;2022-12-29T12:38:46;11.00;99.90
21047;DHT22;10682;50.874;3.656;2022-12-29T12:44:35;10.90;99.90
21047;DHT22;10682;50.874;3.656;2022-12-29T12:50:05;10.70;99.90
21047;DHT22;10682;50.874;3.656;2022-12-29T12:52:49;10.60;99.90
21047;DHT22;10682;50.874;3.656;2022-12-29T12:59:02;10.70;99.90
21047;DHT22;10682;50.874;3.656;2022-12-29T13:13:40;10.90;99.90
21047;DHT22;10682;50.874;3.656;2022-12-29T13:30:51;9.60;99.90
21047;DHT22;10682;50.874;3.656;2022-12-29T13:33:29;9.30;99.90
21047;DHT22;10682;50.874;3.656;2022-12-29T13:36:29;9.10;99.90
21047;DHT22;10682;50.874;3.656;2022-12-29T13:39:08;9.00;99.90
21047;DHT22;10682;50.874;3.656;2022-12-29T13:41:49;9.00;99.90
21047;DHT22;10682;50.874;3.656;2022-12-29T13:44:23;8.90;99.90
21047;DHT22;10682;50.874;3.656;2022-12-29T13:49:53;8.80;99.90
21047;DHT22;10682;50.874;3.656;2022-12-29T13:55:35;8.60;99.90
21047;DHT22;10682;50.874;3.656;2022-12-29T14:01:31;8.60;99.90
21047;DHT22;10682;50.874;3.656;2022-12-29T14:04:07;8.70;99.90
21047;DHT22;10682;50.874;3.656;2022-12-29T14:06:38;8.70;99.90
21047;DHT22;10682;50.874;3.656;2022-12-29T14:09:47;8.70;99.90
21047;DHT22;10682;50.874;3.656;2022-12-29T14:17:40;8.80;99.90
21047;DHT22;10682;50.874;3.656;2022-12-29T14:20:19;8.90;99.90
21047;DHT22;10682;50.874;3.656;2022-12-29T14:34:59;9.00;99.90
21047;DHT22;10682;50.874;3.656;2022-12-29T14:37:32;9.10;99.90
21047;DHT22;10682;50.874;3.656;2022-12-29T14:40:16;9.10;99.90
21047;DHT22;10682;50.874;3.656;2022-12-29T14:42:55;9.10;99.90
21047;DHT22;10682;50.874;3.656;2022-12-29T14:45:27;9.00;99.90
21047;DHT22;10682;50.874;3.656;2022-12-29T14:47:56;9.00;99.90
21047;DHT22;10682;50.874;3.656;2022-12-29T14:50:40;9.00;99.90
21047;DHT22;10682;50.874;3.656;2022-12-29T14:53:45;8.90;99.90
21047;DHT22;10682;50.874;3.656;2022-12-29T14:56:19;8.90;99.90
21047;DHT22;10682;50.874;3.656;2022-12-29T14:59:03;9.00;99.90
21047;DHT22;10682;50.874;3.656;2022-12-29T15:04:12;9.00;99.90
21047;DHT22;10682;50.874;3.656;2022-12-29T15:06:49;9.00;99.90
21047;DHT22;10682;50.874;3.656;2022-12-29T15:12:43;9.00;99.90
21047;DHT22;10682;50.874;3.656;2022-12-29T15:17:51;8.90;99.90
21047;DHT22;10682;50.874;3.656;2022-12-29T15:20:28;8.90;99.90
21047;DHT22;10682;50.874;3.656;2022-12-29T15:23:10;8.80;99.90
21047;DHT22;10682;50.874;3.656;2022-12-29T15:28:21;8.70;99.90
21047;DHT22;10682;50.874;3.656;2022-12-29T15:30:56;8.60;99.90
21047;DHT22;10682;50.874;3.656;2022-12-29T15:33:29;8.50;99.90
21047;DHT22;10682;50.874;3.656;2022-12-29T15:36:01;8.50;99.90
21047;DHT22;10682;50.874;3.656;2022-12-29T15:38:30;8.40;99.90
21047;DHT22;10682;50.874;3.656;2022-12-29T15:44:17;8.30;99.90
21047;DHT22;10682;50.874;3.656;2022-12-29T15:46:47;8.20;99.90
21047;DHT22;10682;50.874;3.656;2022-12-29T15:49:16;8.30;99.90
21047;DHT22;10682;50.874;3.656;2022-12-29T15:51:43;8.30;99.90
21047;DHT22;10682;50.874;3.656;2022-12-29T15:54:19;8.30;99.90
21047;DHT22;10682;50.874;3.656;2022-12-29T15:56:47;8.30;99.90
21047;DHT22;10682;50.874;3.656;2022-12-29T15:59:29;8.30;99.90
21047;DHT22;10682;50.874;3.656;2022-12-29T16:02:00;8.30;99.90
21047;DHT22;10682;50.874;3.656;2022-12-29T16:04:35;8.30;99.90
21047;DHT22;10682;50.874;3.656;2022-12-29T16:07:29;8.30;99.90
21047;DHT22;10682;50.874;3.656;2022-12-29T16:10:25;8.20;99.90
21047;DHT22;10682;50.874;3.656;2022-12-29T16:13:20;8.20;99.90
21047;DHT22;10682;50.874;3.656;2022-12-29T16:15:59;8.20;99.90
21047;DHT22;10682;50.874;3.656;2022-12-29T16:18:33;8.20;99.90
21047;DHT22;10682;50.874;3.656;2022-12-29T16:21:04;8.20;99.90
21047;DHT22;10682;50.874;3.656;2022-12-29T16:23:32;8.20;99.90
21047;DHT22;10682;50.874;3.656;2022-12-29T16:26:03;8.30;99.90
21047;DHT22;10682;50.874;3.656;2022-12-29T16:28:40;8.30;99.90
21047;DHT22;10682;50.874;3.656;2022-12-29T16:31:26;8.30;99.90
21047;DHT22;10682;50.874;3.656;2022-12-29T16:37:29;8.40;99.90
21047;DHT22;10682;50.874;3.656;2022-12-29T16:42:49;8.60;99.90
21047;DHT22;10682;50.874;3.656;2022-12-29T16:47:48;8.70;99.90
21047;DHT22;10682;50.874;3.656;2022-12-29T16:50:34;8.70;99.90
21047;DHT22;10682;50.874;3.656;2022-12-29T16:53:03;8.70;99.90
21047;DHT22;10682;50.874;3.656;2022-12-29T16:55:31;8.70;99.90
21047;DHT22;10682;50.874;3.656;2022-12-29T16:57:59;8.60;99.90
21047;DHT22;10682;50.874;3.656;2022-12-29T17:00:29;8.60;99.90
21047;DHT22;10682;50.874;3.656;2022-12-29T17:03:02;8.50;99.90
21047;DHT22;10682;50.874;3.656;2022-12-29T17:05:33;8.50;99.90
21047;DHT22;10682;50.874;3.656;2022-12-29T17:08:12;8.50;99.90
21047;DHT22;10682;50.874;3.656;2022-12-29T17:10:55;8.50;99.90
21047;DHT22;10682;50.874;3.656;2022-12-29T17:13:41;8.40;99.90
21047;DHT22;10682;50.874;3.656;2022-12-29T17:16:10;8.40;99.90
21047;DHT22;10682;50.874;3.656;2022-12-29T17:18:38;8.40;99.90
21047;DHT22;10682;50.874;3.656;2022-12-29T17:21:05;8.40;99.90
21047;DHT22;10682;50.874;3.656;2022-12-29T17:23:32;8.30;99.90
21047;DHT22;10682;50.874;3.656;2022-12-29T17:26:01;8.30;99.90
21047;DHT22;10682;50.874;3.656;2022-12-29T17:28:30;8.20;99.90
21047;DHT22;10682;50.874;3.656;2022-12-29T17:31:00;8.30;99.90
21047;DHT22;10682;50.874;3.656;2022-12-29T17:33:36;8.20;99.90
21047;DHT22;10682;50.874;3.656;2022-12-29T17:36:04;8.30;99.90
21047;DHT22;10682;50.874;3.656;2022-12-29T17:38:34;8.30;99.90
21047;DHT22;10682;50.874;3.656;2022-12-29T17:41:02;8.20;99.90
21047;DHT22;10682;50.874;3.656;2022-12-29T17:43:29;8.20;99.90
21047;DHT22;10682;50.874;3.656;2022-12-29T17:46:05;8.20;99.90
21047;DHT22;10682;50.874;3.656;2022-12-29T17:48:33;8.30;99.90
21047;DHT22;10682;50.874;3.656;2022-12-29T17:51:01;8.30;99.90
21047;DHT22;10682;50.874;3.656;2022-12-29T17:53:28;8.30;99.90
21047;DHT22;10682;50.874;3.656;2022-12-29T17:55:56;8.30;99.90
21047;DHT22;10682;50.874;3.656;2022-12-29T17:58:25;8.30;99.90
21047;DHT22;10682;50.874;3.656;2022-12-29T18:00:59;8.30;99.90
21047;DHT22;10682;50.874;3.656;2022-12-29T18:03:30;8.30;99.90
21047;DHT22;10682;50.874;3.656;2022-12-29T18:06:00;8.30;99.90
21047;DHT22;10682;50.874;3.656;2022-12-29T18:08:28;8.40;99.90
21047;DHT22;10682;50.874;3.656;2022-12-29T18:10:55;8.40;99.90
21047;DHT22;10682;50.874;3.656;2022-12-29T18:13:25;8.40;99.90
21047;DHT22;10682;50.874;3.656;2022-12-29T18:16:08;8.40;99.90
21047;DHT22;10682;50.874;3.656;2022-12-29T18:18:36;8.40;99.90
21047;DHT22;10682;50.874;3.656;2022-12-29T18:21:03;8.40;99.90
21047;DHT22;10682;50.874;3.656;2022-12-29T18:23:32;8.40;99.90
21047;DHT22;10682;50.874;3.656;2022-12-29T18:26:20;8.40;99.90
21047;DHT22;10682;50.874;3.656;2022-12-29T18:28:55;8.40;99.90
21047;DHT22;10682;50.874;3.656;2022-12-29T18:31:29;8.40;99.90
21047;DHT22;10682;50.874;3.656;2022-12-29T18:34:00;8.30;99.90
21047;DHT22;10682;50.874;3.656;2022-12-29T18:36:30;8.40;99.90
21047;DHT22;10682;50.874;3.656;2022-12-29T18:38:57;8.40;99.90
21047;DHT22;10682;50.874;3.656;2022-12-29T18:41:28;8.40;99.90
21047;DHT22;10682;50.874;3.656;2022-12-29T18:43:56;8.30;99.90
21047;DHT22;10682;50.874;3.656;2022-12-29T18:46:24;8.30;99.90
21047;DHT22;10682;50.874;3.656;2022-12-29T18:48:52;8.20;99.90